• Join FlightAware (Why Join?)
  • Login
  • US Flag 
10:08PM EST


 

Airport Tracker/Info


-or-


 

Live Flight TrackerFlight Track Log ✈ CDG4712 ✈ 27-Aug-2013 ✈ ZSWY / WUS - ZSQD / TAO

Flight Track Log - Related Links

Times and Time Zones

All times are in EDT time to prevent confusion due to time zone crossing. See the CDG4712 flight status page for this flight to view local times or setup timezone preferences in your user account.

Time Position Orientation Groundspeed Altitude Reporting Facility
EDT Latitude Longitude Course Direction KTS MPH feet Rate Location/Type
02:39AM 28.5683 118.2221 13° North  Level Estimated
02:40AM 28.6549 118.2443 13° North  Level Estimated
02:41AM 28.7415 118.2666 13° North  Level Estimated
02:42AM 28.8281 118.2890 13° North  Level Estimated
02:43AM 28.9147 118.3114 13° North  Level Estimated
02:44AM 29.0013 118.3338 13° North  Level Estimated
02:45AM 29.0879 118.3562 13° North  Level Estimated
02:46AM 29.1745 118.3787 13° North  Level Estimated
02:47AM 29.2610 118.4013 13° North  Level Estimated
02:48AM 29.3476 118.4238 13° North  Level Estimated
02:49AM 29.4342 118.4464 13° North  Level Estimated
02:50AM 29.5208 118.4691 13° North  Level Estimated
02:51AM 29.6073 118.4918 13° North  Level Estimated
02:52AM 29.6939 118.5145 13° North  Level Estimated
02:53AM 29.7805 118.5372 13° North  Level Estimated
02:54AM 29.8670 118.5600 13° North  Level Estimated
02:55AM 29.9536 118.5829 13° North  Level Estimated
02:56AM 30.0401 118.6058 13° North  Level Estimated
02:57AM 30.1267 118.6287 13° North  Level Estimated
02:58AM 30.2132 118.6516 13° North  Level Estimated
02:59AM 30.2998 118.6746 13° North  Level Estimated
03:00AM 30.3863 118.6977 13° North  Level Estimated
03:01AM 30.4729 118.7208 13° North  Level Estimated
03:02AM 30.5594 118.7439 13° North  Level Estimated
03:03AM 30.6459 118.7671 13° North  Level Estimated
03:04AM 30.7324 118.7903 13° North  Level Estimated
03:05AM 30.8189 118.8135 13° North  Level Estimated
03:06AM 30.9054 118.8368 13° North  Level Estimated
03:07AM 30.9919 118.8601 13° North  Level Estimated
03:08AM 31.0784 118.8835 13° North  Level Estimated
03:09AM 31.1649 118.9069 13° North  Level Estimated
03:10AM 31.2514 118.9304 13° North  Level Estimated
03:11AM 31.3379 118.9539 13° North  Level Estimated
03:12AM 31.4244 118.9774 13° North  Level Estimated
03:13AM 31.5109 119.0010 13° North  Level Estimated
03:14AM 31.5974 119.0247 13° North  Level Estimated
03:15AM 31.6838 119.0483 13° North  Level Estimated
03:16AM 31.7703 119.0721 13° North  Level Estimated
03:17AM 31.8568 119.0958 13° North  Level Estimated
03:18AM 31.9432 119.1196 13° North  Level Estimated
03:19AM 32.0297 119.1435 13° North  Level Estimated
03:20AM 32.1161 119.1674 13° North  Level Estimated
03:21AM 32.2026 119.1914 13° North  Level Estimated
03:22AM 32.2890 119.2153 13° North  Level Estimated
03:23AM 32.3755 119.2394 13° North  Level Estimated
03:24AM 32.4619 119.2635 13° North  Level Estimated
03:25AM 32.5483 119.2876 13° North  Level Estimated
03:26AM 32.6348 119.3118 13° North  Level Estimated
03:27AM 32.7212 119.3360 13° North  Level Estimated
03:28AM 32.8076 119.3603 13° North  Level Estimated
03:29AM 32.8940 119.3846 13° North  Level Estimated
03:30AM 32.9804 119.4089 13° North  Level Estimated
03:31AM 33.0668 119.4333 13° North  Level Estimated
03:32AM 33.1532 119.4578 13° North  Level Estimated
03:33AM 33.2396 119.4823 13° North  Level Estimated
03:34AM 33.3260 119.5069 13° North  Level Estimated
03:35AM 33.4123 119.5315 13° North  Level Estimated
03:36AM 33.4987 119.5561 13° North  Level Estimated
03:37AM 33.5851 119.5808 13° North  Level Estimated
03:38AM 33.6715 119.6056 13° North  Level Estimated
03:39AM 33.7578 119.6304 13° North  Level Estimated
03:40AM 33.8442 119.6552 13° North  Level Estimated
03:41AM 33.9305 119.6801 13° North  Level Estimated
03:42AM 34.0169 119.7051 13° North  Level Estimated
03:43AM 34.1032 119.7301 13° North  Level Estimated
03:44AM 34.1895 119.7552 13° North  Level Estimated
03:45AM 34.2759 119.7803 14° North  Level Estimated
03:46AM 34.3622 119.8054 14° North  Level Estimated
03:47AM 34.4485 119.8306 14° North  Level Estimated
03:48AM 34.5348 119.8559 14° North  Level Estimated
03:49AM 34.6211 119.8812 14° North  Level Estimated
03:50AM 34.7074 119.9066 14° North  Level Estimated
03:51AM 34.7937 119.9320 14° North  Level Estimated
03:52AM 34.8800 119.9575 14° North  Level Estimated
03:53AM 34.9663 119.9830 14° North  Level Estimated
03:54AM 35.0526 120.0086 14° North  Level Estimated
03:55AM 35.1389 120.0342 14° North  Level Estimated
03:56AM 35.2252 120.0599 14° North  Level Estimated
03:57AM 35.3114 120.0857 14° North  Level Estimated
03:58AM 35.3977 120.1115 14° North  Level Estimated
03:59AM 35.4839 120.1373 14° North  Level Estimated
04:00AM 35.5702 120.1632 14° North  Level Estimated
04:01AM 35.6564 120.1892 14° North  Level Estimated
04:02AM 35.7427 120.2152 14° North  Level Estimated
04:03AM 35.8289 120.2413 14° North  Level Estimated
04:04AM 35.9151 120.2674 14° North  Level Estimated
04:05AM 36.0014 120.2936 14° North  Level Estimated
04:06AM 36.0876 120.3199 14° North  Level Estimated
04:07AM 36.1738 120.3462 14° North  Level Estimated
04:08AM 36.2600 120.3726 14° North  Level Estimated
04:09AM 36.2661 120.3744 14° North  Level Estimated
04:10AM 36.2661 120.3744 238° Southwest  Level Estimated
04:11AM 36.2661 120.3744 238° Southwest  Level Estimated
04:12AM 36.2661 120.3744 238° Southwest  Level Estimated
04:13AM 36.2661 120.3744 238° Southwest  Level Estimated
04:14AM 36.2661 120.3744 238° Southwest  Level Estimated
04:15AM 36.2661 120.3744 238° Southwest  Level Estimated
04:16AM 36.2661 120.3744 238° Southwest  Level Estimated
04:17AM 36.2661 120.3744 238° Southwest  Level Estimated
04:18AM 36.2661 120.3744 238° Southwest  Level Estimated
04:19AM 36.2661 120.3744 238° Southwest  Level Estimated
04:20AM 36.2661 120.3744 238° Southwest  Level Estimated
04:21AM 36.2661 120.3744 238° Southwest  Level Estimated
04:22AM 36.2661 120.3744 238° Southwest  Level Estimated